Time;durP1;ratioP1;P1;durP2;ratioP2;P2;SDS_P1;SDS_P2;PMS_P1;PMS_P2;Temp;Humidity;BMP_temperature;BMP_pressure;BME280_temperature;BME280_humidity;BME280_pressure;Samples;Min_cycle;Max_cycle;Signal;HPM_P1;HPM_P2
2021/03/25 00:01:24;;;;;;;96.43;51.40;;;;;;;6.63;62.70;100766.09;4867346;28;101250;-83
2021/03/25 00:03:52;;;;;;;96.60;52.63;;;;;;;6.71;63.18;100768.63;4893317;28;96664;-82
2021/03/25 00:06:18;;;;;;;93.20;53.20;;;;;;;6.70;62.43;100762.56;4882707;28;96785;-83
2021/03/25 00:08:44;;;;;;;91.97;52.07;;;;;;;6.71;62.77;100759.06;4857766;28;100840;-83
2021/03/25 00:11:10;;;;;;;96.03;53.73;;;;;;;6.74;62.65;100758.16;4866526;28;100588;-83
2021/03/25 00:13:36;;;;;;;91.23;53.73;;;;;;;6.72;62.46;100758.19;4842785;28;96866;-82
2021/03/25 00:16:04;;;;;;;93.60;53.97;;;;;;;6.65;62.42;100759.13;4863555;28;96888;-82
2021/03/25 00:18:31;;;;;;;96.63;53.53;;;;;;;6.60;62.53;100750.50;4872292;28;101777;-82
2021/03/25 00:20:57;;;;;;;92.37;53.40;;;;;;;6.40;63.41;100745.50;4866487;28;101297;-82
2021/03/25 00:23:23;;;;;;;93.97;55.90;;;;;;;6.47;63.16;100748.91;4874388;28;97281;-82
2021/03/25 00:25:48;;;;;;;94.27;54.93;;;;;;;6.53;62.98;100759.28;4893386;28;96859;-82
2021/03/25 00:28:16;;;;;;;94.57;55.23;;;;;;;6.42;63.16;100758.50;4860371;28;101340;-85
2021/03/25 00:30:41;;;;;;;97.07;55.10;;;;;;;6.45;63.19;100758.47;4866322;28;101334;-82
2021/03/25 00:33:09;;;;;;;96.67;56.17;;;;;;;6.46;63.33;100757.63;4854086;28;97031;-88
2021/03/25 00:35:35;;;;;;;101.70;55.37;;;;;;;6.54;62.77;100751.44;4857806;28;97512;-82
2021/03/25 00:38:02;;;;;;;99.87;57.63;;;;;;;6.53;63.31;100749.69;4845618;28;101856;-82
2021/03/25 00:40:27;;;;;;;103.70;57.90;;;;;;;6.47;63.30;100748.91;4850311;28;101505;-83
2021/03/25 00:42:53;;;;;;;102.63;56.53;;;;;;;6.39;63.78;100755.94;4870683;28;96716;-83
2021/03/25 00:45:29;;;;;;;102.43;57.30;;;;;;;6.40;62.94;100755.03;4852491;28;97165;-83
2021/03/25 00:47:55;;;;;;;96.80;55.83;;;;;;;6.32;63.41;100753.41;4848318;28;101642;-82
2021/03/25 00:50:30;;;;;;;99.80;56.00;;;;;;;6.39;63.06;100748.97;4846173;28;101011;-83
2021/03/25 00:52:57;;;;;;;99.77;57.10;;;;;;;6.43;63.07;100744.59;4867423;28;97045;-83
2021/03/25 00:55:23;;;;;;;101.47;56.30;;;;;;;6.34;63.25;100742.94;4863050;28;97053;-83
2021/03/25 00:57:49;;;;;;;109.30;56.67;;;;;;;6.24;63.80;100746.53;4869111;28;101050;-82
2021/03/25 01:00:23;;;;;;;102.87;57.63;;;;;;;6.25;63.73;100746.50;4870100;28;101545;-83
2021/03/25 01:02:49;;;;;;;103.07;57.33;;;;;;;6.20;63.83;100735.28;4868967;28;96799;-83
2021/03/25 01:05:15;;;;;;;101.47;54.93;;;;;;;6.20;64.13;100742.22;4856779;28;96949;-83
2021/03/25 01:07:41;;;;;;;105.83;56.70;;;;;;;6.25;63.79;100736.06;4865185;28;98547;-84
2021/03/25 01:10:30;;;;;;;105.63;57.67;;;;;;;6.25;64.29;100737.81;4863268;28;101394;-88
2021/03/25 01:12:57;;;;;;;101.97;58.20;;;;;;;6.21;63.96;100736.97;4875849;28;96916;-82
2021/03/25 01:15:24;;;;;;;106.73;56.37;;;;;;;6.28;63.82;100736.06;4859212;28;97059;-83
2021/03/25 01:17:53;;;;;;;102.43;56.30;;;;;;;6.35;63.78;100736.84;4851152;28;101558;-83
2021/03/25 01:20:33;;;;;;;101.00;57.40;;;;;;;6.33;63.74;100725.56;4839155;28;101384;-83
2021/03/25 01:23:00;;;;;;;105.53;57.00;;;;;;;6.46;63.84;100740.22;4850550;28;97708;-84
2021/03/25 01:25:29;;;;;;;98.93;56.13;;;;;;;6.59;63.47;100733.13;4885025;28;97237;-83
2021/03/25 01:27:59;;;;;;;106.10;54.53;;;;;;;6.51;63.66;100730.59;4856595;28;101455;-83
2021/03/25 01:30:27;;;;;;;100.63;56.10;;;;;;;6.51;63.44;100729.72;4880265;28;97955;-82
2021/03/25 01:32:54;;;;;;;103.23;58.00;;;;;;;6.51;63.52;100734.94;4863611;28;96726;-82
2021/03/25 01:35:21;;;;;;;97.67;55.13;;;;;;;6.38;63.79;100733.34;4852285;28;96917;-83
2021/03/25 01:37:48;;;;;;;92.30;52.40;;;;;;;6.39;63.70;100732.47;4853804;28;101285;-83
2021/03/25 01:40:15;;;;;;;96.73;54.63;;;;;;;6.31;63.92;100732.53;4833555;29;101494;-83
2021/03/25 01:42:41;;;;;;;96.40;54.90;;;;;;;6.37;63.54;100722.06;4880782;28;97217;-83
2021/03/25 01:45:29;;;;;;;91.63;52.53;;;;;;;6.37;63.71;100729.00;4865261;28;97106;-88
2021/03/25 01:47:59;;;;;;;93.57;50.43;;;;;;;6.37;63.29;100731.63;4870706;28;101896;-82
2021/03/25 01:50:25;;;;;;;94.77;52.27;;;;;;;6.32;63.28;100729.06;4867748;28;101276;-83
2021/03/25 01:53:28;;;;;;;90.63;51.87;;;;;;;6.43;63.32;100726.31;4853065;28;96838;-82
2021/03/25 01:56:16;;;;;;;91.43;52.47;;;;;;;6.40;63.37;100718.53;4870878;28;97243;-82
2021/03/25 01:59:12;;;;;;;92.53;50.03;;;;;;;6.45;63.02;100716.75;4873976;28;101113;-82
2021/03/25 02:01:52;;;;;;;94.50;51.63;;;;;;;6.37;63.38;100718.56;4875812;28;101798;-83
2021/03/25 02:04:27;;;;;;;98.50;51.47;;;;;;;6.39;62.98;100715.06;4835902;28;97521;-83
2021/03/25 02:07:07;;;;;;;88.70;49.97;;;;;;;6.37;63.16;100711.66;4876030;28;96918;-82
2021/03/25 02:10:02;;;;;;;97.90;51.05;;;;;;;6.44;62.91;100705.47;4862158;28;101944;-82
2021/03/25 02:13:36;;;;;;;86.00;46.07;;;;;;;6.43;62.29;100700.25;4862937;28;101650;-82
2021/03/25 02:16:09;;;;;;;84.73;48.23;;;;;;;6.45;62.55;100712.41;4830535;28;97042;-82
2021/03/25 02:19:17;;;;;;;79.13;46.20;;;;;;;6.46;62.33;100708.94;4860019;28;96826;-82
2021/03/25 02:21:54;;;;;;;81.63;47.20;;;;;;;6.41;62.17;100718.53;4875874;28;101953;-82
2021/03/25 02:24:39;;;;;;;75.87;44.30;;;;;;;6.41;61.97;100709.84;4863430;28;100792;-82
2021/03/25 02:27:44;;;;;;;72.37;44.30;;;;;;;6.38;62.03;100708.16;4866381;28;96684;-91
2021/03/25 02:30:17;;;;;;;76.00;43.30;;;;;;;6.33;62.58;100708.19;4868878;28;96800;-89
2021/03/25 02:32:59;;;;;;;80.83;45.63;;;;;;;6.30;62.70;100707.34;4847864;28;101572;-83
2021/03/25 02:35:40;;;;;;;74.20;43.00;;;;;;;6.34;62.72;100709.94;4849940;29;100952;-82
2021/03/25 02:38:43;;;;;;;76.10;44.43;;;;;;;6.37;62.32;100701.22;4855780;28;97286;-82
2021/03/25 02:41:22;;;;;;;74.20;44.08;;;;;;;6.38;62.42;100700.31;4868204;28;97416;-83
2021/03/25 02:43:59;;;;;;;75.87;42.77;;;;;;;6.51;62.38;100701.88;4859032;28;99937;-83
2021/03/25 02:46:32;;;;;;;84.23;45.30;;;;;;;6.50;62.12;100689.75;4850408;28;101727;-83
2021/03/25 02:49:01;;;;;;;76.80;44.73;;;;;;;6.49;62.38;100692.38;4849116;28;96763;-83
2021/03/25 02:52:03;;;;;;;78.67;44.67;;;;;;;6.44;62.35;100684.59;4850524;28;96834;-83
2021/03/25 02:54:33;;;;;;;75.87;44.37;;;;;;;6.35;62.73;100693.38;4876165;28;101579;-82
2021/03/25 02:57:13;;;;;;;79.20;45.33;;;;;;;6.38;62.78;100692.50;4887648;28;101336;-83
2021/03/25 02:59:40;;;;;;;74.30;44.53;;;;;;;6.49;62.19;100695.00;4851119;28;97126;-82
2021/03/25 03:02:34;;;;;;;75.53;43.77;;;;;;;6.55;61.97;100685.34;4846292;28;97158;-83
2021/03/25 03:05:07;;;;;;;71.17;43.33;;;;;;;6.44;62.28;100695.03;4863942;28;101263;-83
2021/03/25 03:08:06;;;;;;;;;;;;;;;6.39;62.17;100691.59;4852007;29;101939;-83
2021/03/25 03:10:47;;;;;;;72.30;42.90;;;;;;;6.38;62.34;100681.22;4869790;28;97243;-82
2021/03/25 03:13:14;;;;;;;74.83;42.90;;;;;;;6.47;62.21;100683.72;4843196;28;97666;-89
2021/03/25 03:15:49;;;;;;;75.20;44.67;;;;;;;6.43;62.58;100680.28;4862139;28;101795;-82
2021/03/25 03:18:27;;;;;;;75.67;43.40;;;;;;;6.39;62.50;100675.97;4850148;28;100412;-83
2021/03/25 03:21:08;;;;;;;75.67;43.77;;;;;;;6.38;62.31;100676.84;4868188;28;97009;-83
2021/03/25 03:23:51;;;;;;;76.13;42.63;;;;;;;6.38;62.55;100679.47;4842515;29;97054;-82
2021/03/25 03:26:25;;;;;;;72.17;42.33;;;;;;;6.38;62.74;100671.63;4868125;28;97317;-83
2021/03/25 03:28:55;;;;;;;72.50;43.30;;;;;;;6.51;62.33;100674.94;4869681;28;101720;-83
2021/03/25 03:31:35;;;;;;;76.37;44.47;;;;;;;6.57;62.49;100661.84;4872315;28;97059;-83
2021/03/25 03:34:15;;;;;;;;;;;;;;;6.54;61.81;100664.47;4848480;29;97060;-89
2021/03/25 03:36:42;;;;;;;70.63;43.07;;;;;;;6.49;62.04;100663.69;4851948;28;101339;-82
2021/03/25 03:39:15;;;;;;;72.10;42.37;;;;;;;6.59;62.06;100670.50;4846183;28;101659;-83
2021/03/25 03:41:49;;;;;;;68.37;42.27;;;;;;;6.63;61.91;100672.19;4859291;28;97044;-83
2021/03/25 03:44:18;;;;;;;69.25;42.05;;;;;;;6.61;61.55;100670.50;4870510;28;96727;-84
2021/03/25 03:46:45;;;;;;;71.50;41.83;;;;;;;6.59;62.10;100665.28;4858519;28;98552;-83
2021/03/25 03:49:22;;;;;;;69.50;42.80;;;;;;;6.49;62.58;100677.59;4857492;28;101538;-88
2021/03/25 03:52:19;;;;;;;71.83;42.40;;;;;;;6.51;62.40;100673.19;4867814;28;97104;-83
2021/03/25 03:54:49;;;;;;;66.00;41.80;;;;;;;6.62;62.01;100672.22;4855947;29;96988;-82
2021/03/25 03:57:21;;;;;;;69.43;41.73;;;;;;;6.65;61.83;100665.22;4882524;28;97972;-84
2021/03/25 04:00:22;;;;;;;66.73;42.30;;;;;;;6.54;62.21;100669.69;4869250;28;101493;-83
2021/03/25 04:03:14;;;;;;;69.47;43.50;;;;;;;6.51;62.22;100670.59;4883578;28;98361;-82
2021/03/25 04:06:23;;;;;;;68.47;40.97;;;;;;;6.57;61.94;100674.88;4844154;29;97057;-91
2021/03/25 04:09:16;;;;;;;65.97;39.50;;;;;;;6.52;61.91;100668.88;4868010;28;97675;-84
2021/03/25 04:12:12;;;;;;;67.10;40.47;;;;;;;6.47;62.05;100676.75;4851585;28;100673;-83
2021/03/25 04:14:51;;;;;;;63.20;40.50;;;;;;;6.50;62.01;100668.88;4865842;28;96858;-82
2021/03/25 04:17:31;;;;;;;66.70;43.53;;;;;;;6.48;61.83;100673.25;4839649;29;96892;-82
2021/03/25 04:20:09;;;;;;;68.97;41.17;;;;;;;6.40;61.91;100676.81;4868968;28;101373;-83
2021/03/25 04:23:01;;;;;;;65.30;38.63;;;;;;;6.46;61.83;100677.63;4873710;28;101157;-83
2021/03/25 04:25:48;;;;;;;66.70;41.57;;;;;;;6.51;61.78;100680.16;4849879;28;96952;-83
2021/03/25 04:28:22;;;;;;;69.37;42.10;;;;;;;6.50;62.06;100676.69;4860429;28;97136;-88
2021/03/25 04:30:52;;;;;;;65.63;41.43;;;;;;;6.48;61.99;100678.47;4868716;28;101234;-83
2021/03/25 04:33:23;;;;;;;67.37;40.77;;;;;;;6.52;61.84;100677.56;4842660;28;100929;-83
2021/03/25 04:35:49;;;;;;;62.50;40.70;;;;;;;6.51;61.89;100677.56;4857947;28;96910;-82
2021/03/25 04:38:17;;;;;;;66.73;40.77;;;;;;;6.52;61.82;100688.00;4870541;28;96873;-88
2021/03/25 04:40:43;;;;;;;67.90;41.90;;;;;;;6.57;61.66;100686.19;4870476;28;100107;-82
2021/03/25 04:43:10;;;;;;;66.63;41.87;;;;;;;6.54;62.06;100680.13;4880433;28;97382;-82
2021/03/25 04:45:51;;;;;;;62.83;40.20;;;;;;;6.51;61.62;100682.78;4879662;28;96722;-82
2021/03/25 04:48:23;;;;;;;66.35;40.63;;;;;;;6.45;61.76;100678.50;4865593;28;96893;-84
2021/03/25 04:50:59;;;;;;;65.75;39.30;;;;;;;6.53;61.77;100681.03;4863765;28;101455;-83
2021/03/25 04:53:30;;;;;;;66.97;41.70;;;;;;;6.45;62.34;100691.53;4881377;28;101666;-82
2021/03/25 04:55:56;;;;;;;66.70;41.40;;;;;;;6.52;62.45;100692.34;4856914;28;96805;-83
2021/03/25 04:58:36;;;;;;;70.53;42.93;;;;;;;6.51;62.64;100685.38;4872045;28;96911;-83
2021/03/25 05:01:07;;;;;;;65.97;42.17;;;;;;;6.45;62.73;100688.06;4844063;28;101346;-82
2021/03/25 05:03:33;;;;;;;71.00;40.20;;;;;;;6.50;62.78;100688.88;4852758;28;101129;-83
2021/03/25 05:05:59;;;;;;;70.50;42.57;;;;;;;6.58;62.64;100694.88;4856590;28;96844;-82
2021/03/25 05:08:29;;;;;;;70.80;43.47;;;;;;;6.60;62.43;100685.28;4856594;28;96911;-83
2021/03/25 05:11:08;;;;;;;73.57;44.00;;;;;;;6.56;62.71;100688.81;4864836;28;100995;-83
2021/03/25 05:13:36;;;;;;;73.60;42.47;;;;;;;6.55;62.76;100687.09;4859116;28;101179;-82
2021/03/25 05:16:36;;;;;;;70.47;41.23;;;;;;;6.60;62.21;100689.63;4841305;28;96772;-82
2021/03/25 05:19:05;;;;;;;71.33;43.07;;;;;;;6.68;62.63;100690.41;4868512;28;97042;-82
2021/03/25 05:21:39;;;;;;;71.50;43.10;;;;;;;6.68;62.38;100688.66;4877246;28;98016;-83
2021/03/25 05:24:25;;;;;;;69.83;44.47;;;;;;;6.67;62.72;100686.09;4857255;28;101224;-82
2021/03/25 05:26:58;;;;;;;74.77;44.13;;;;;;;6.66;62.45;100679.13;4874962;28;96844;-83
2021/03/25 05:29:26;;;;;;;67.73;41.53;;;;;;;6.67;62.66;100689.56;4859740;28;96962;-83
2021/03/25 05:31:53;;;;;;;72.77;43.47;;;;;;;6.79;62.09;100685.94;4863892;28;100850;-83
2021/03/25 05:34:19;;;;;;;87.20;44.03;;;;;;;6.92;61.76;100692.72;4846563;28;101826;-84
2021/03/25 05:36:45;;;;;;;71.93;44.10;;;;;;;6.97;62.02;100697.88;4849576;29;96754;-82
2021/03/25 05:39:10;;;;;;;70.30;44.40;;;;;;;6.96;61.39;100685.72;4855521;28;96886;-83
2021/03/25 05:41:43;;;;;;;66.80;42.33;;;;;;;7.15;61.38;100692.38;4859695;28;101626;-84
2021/03/25 05:44:43;;;;;;;68.40;43.50;;;;;;;7.20;60.82;100692.34;4879059;28;97909;-82
2021/03/25 05:47:46;;;;;;;69.00;43.03;;;;;;;7.47;60.44;100685.81;4875385;28;97877;-82
2021/03/25 05:50:24;;;;;;;71.07;43.50;;;;;;;7.82;59.63;100692.25;4859408;28;96958;-83
2021/03/25 05:53:08;;;;;;;70.07;44.20;;;;;;;8.03;58.99;100688.38;4863013;28;102003;-83
2021/03/25 05:55:48;;;;;;;65.73;41.33;;;;;;;8.05;58.52;100690.09;4878159;28;101742;-82
2021/03/25 05:58:37;;;;;;;67.85;44.25;;;;;;;8.13;58.66;100700.41;4865934;28;97316;-82
2021/03/25 06:01:17;;;;;;;63.60;43.13;;;;;;;8.23;58.42;100696.75;4851245;28;96799;-82
2021/03/25 06:03:58;;;;;;;61.83;41.13;;;;;;;8.33;58.35;100711.38;4878551;28;101630;-83
2021/03/25 06:06:55;;;;;;;68.20;43.67;;;;;;;8.36;57.85;100713.94;4866650;28;101541;-82
2021/03/25 06:09:42;;;;;;;65.00;41.42;;;;;;;8.49;57.79;100708.50;4848522;28;96774;-83
2021/03/25 06:12:15;;;;;;;67.53;41.95;;;;;;;8.90;56.94;100712.03;4872849;28;96708;-82
2021/03/25 06:14:56;;;;;;;64.93;41.50;;;;;;;8.93;56.29;100714.59;4870564;28;101696;-83
2021/03/25 06:17:43;;;;;;;75.28;42.25;;;;;;;9.41;55.51;100709.19;4863044;28;98180;-83
2021/03/25 06:20:18;;;;;;;56.38;40.75;;;;;;;9.84;54.30;100705.53;4863445;28;96683;-82
2021/03/25 06:22:44;;;;;;;60.28;41.55;;;;;;;10.14;53.49;100706.50;4868023;28;96559;-82
2021/03/25 06:25:31;;;;;;;64.70;43.03;;;;;;;10.69;52.10;100704.19;4888114;28;101007;-82
2021/03/25 06:28:12;;;;;;;64.15;42.88;;;;;;;11.06;50.96;100702.22;4860021;28;101950;-82
2021/03/25 06:30:41;;;;;;;60.65;41.08;;;;;;;11.46;50.26;100701.00;4869091;28;96666;-82
2021/03/25 06:33:10;;;;;;;58.35;39.72;;;;;;;12.21;48.84;100705.53;4888644;28;96916;-81
2021/03/25 06:35:43;;;;;;;57.47;40.15;;;;;;;13.32;46.28;100697.09;4874876;28;101213;-81
2021/03/25 06:38:17;;;;;;;58.13;40.15;;;;;;;14.17;44.33;100705.91;4859631;28;98567;-81
2021/03/25 06:40:47;;;;;;;57.60;40.30;;;;;;;14.88;42.83;100706.31;4874525;28;96820;-82
2021/03/25 06:43:42;;;;;;;57.20;39.03;;;;;;;15.76;41.11;100704.81;4846508;28;97005;-82
2021/03/25 06:46:29;;;;;;;57.55;40.03;;;;;;;16.51;39.44;100703.63;4857132;28;101443;-79
2021/03/25 06:49:00;;;;;;;53.15;40.45;;;;;;;16.88;39.15;100713.19;4839102;28;101399;-80
2021/03/25 06:51:33;;;;;;;63.27;40.53;;;;;;;17.43;38.04;100706.63;4857955;28;97167;-81
2021/03/25 06:54:14;;;;;;;54.15;41.47;;;;;;;17.56;37.89;100706.78;4858863;28;97023;-80
2021/03/25 06:56:45;;;;;;;62.50;40.67;;;;;;;18.23;36.66;100705.50;4842621;28;101045;-82
2021/03/25 06:59:22;;;;;;;;;;;;;;;18.77;36.01;100712.94;4860261;28;101469;-80
2021/03/25 07:01:49;;;;;;;64.32;43.30;;;;;;;19.35;35.43;100709.25;4853731;28;97024;-81
2021/03/25 07:04:30;;;;;;;61.75;41.05;;;;;;;19.75;34.31;100717.31;4850369;28;97252;-81
2021/03/25 07:07:00;;;;;;;52.88;38.42;;;;;;;20.08;34.23;100713.34;4862561;28;101345;-80
2021/03/25 07:09:31;;;;;;;58.08;40.35;;;;;;;20.39;33.74;100716.56;4868201;28;101055;-80
2021/03/25 07:12:06;;;;;;;56.83;41.42;;;;;;;20.62;33.12;100701.69;4862034;28;96862;-80
2021/03/25 07:14:41;;;;;;;54.28;39.08;;;;;;;21.43;32.55;100709.25;4870475;28;96979;-80
2021/03/25 07:17:09;;;;;;;52.70;37.95;;;;;;;21.91;31.91;100707.41;4842036;28;101776;-80
2021/03/25 07:19:37;;;;;;;50.83;38.08;;;;;;;22.03;31.76;100710.13;4850541;28;98004;-80
2021/03/25 07:22:20;;;;;;;53.95;37.95;;;;;;;22.52;31.08;100714.41;4841803;29;96871;-80
2021/03/25 07:24:46;;;;;;;52.33;39.17;;;;;;;22.73;30.81;100710.03;4859186;28;96836;-81
2021/03/25 07:27:22;;;;;;;56.17;39.40;;;;;;;22.99;30.57;100712.53;4837598;29;97934;-81
2021/03/25 07:30:03;;;;;;;56.03;39.20;;;;;;;23.04;30.27;100707.66;4854746;29;98394;-79
2021/03/25 07:32:28;;;;;;;56.17;40.15;;;;;;;23.89;29.59;100706.97;4836426;29;98225;-80
2021/03/25 07:34:59;;;;;;;51.70;39.65;;;;;;;24.48;28.75;100710.94;4846163;28;98201;-81
2021/03/25 07:37:37;;;;;;;62.15;41.35;;;;;;;24.60;28.61;100702.66;4831959;28;100683;-78
2021/03/25 07:40:33;;;;;;;56.17;38.25;;;;;;;25.24;27.70;100711.41;4837488;29;101301;-77
2021/03/25 07:43:22;;;;;;;52.67;36.78;;;;;;;25.85;27.11;100697.78;4862425;28;96786;-80
2021/03/25 07:45:48;;;;;;;57.10;41.45;;;;;;;25.86;27.14;100706.69;4840393;28;96859;-81
2021/03/25 07:48:17;;;;;;;54.35;39.90;;;;;;;26.15;26.55;100704.84;4820558;29;101070;-80
2021/03/25 07:50:44;;;;;;;56.80;38.50;;;;;;;26.25;26.99;100698.59;4857042;28;98845;-80
2021/03/25 07:53:18;;;;;;;52.63;39.08;;;;;;;26.34;26.70;100693.19;4835449;29;96993;-84
2021/03/25 07:55:44;;;;;;;61.13;39.78;;;;;;;26.50;26.13;100698.03;4836047;29;97241;-81
2021/03/25 07:58:32;;;;;;;53.55;38.13;;;;;;;27.06;25.75;100690.84;4848188;29;101317;-83
2021/03/25 08:01:06;;;;;;;48.42;38.80;;;;;;;27.34;25.57;100682.75;4846776;29;97304;-81
2021/03/25 08:03:45;;;;;;;49.65;39.10;;;;;;;27.46;25.32;100698.56;4825233;29;97133;-81
2021/03/25 08:06:20;;;;;;;50.05;39.58;;;;;;;27.85;24.93;100690.19;4851671;28;96908;-81
2021/03/25 08:08:58;;;;;;;50.80;37.97;;;;;;;28.13;24.47;100692.75;4856262;28;98527;-80
2021/03/25 08:11:23;;;;;;;51.65;38.45;;;;;;;28.72;24.30;100684.91;4850234;28;97898;-80
2021/03/25 08:13:58;;;;;;;50.03;41.38;;;;;;;28.26;24.59;100689.66;4844771;28;96951;-80
2021/03/25 08:16:30;;;;;;;46.05;37.78;;;;;;;28.64;24.39;100689.25;4858199;28;97159;-80
2021/03/25 08:19:16;;;;;;;53.08;39.08;;;;;;;29.30;23.94;100689.56;4844031;28;102347;-80
2021/03/25 08:21:49;;;;;;;48.67;38.38;;;;;;;29.33;23.57;100683.81;4881283;28;98396;-80
2021/03/25 08:24:36;;;;;;;46.50;38.63;;;;;;;29.75;23.65;100689.13;4876306;28;97496;-80
2021/03/25 08:27:19;;;;;;;54.47;40.67;;;;;;;29.84;23.38;100689.97;4824997;28;97063;-80
2021/03/25 08:30:09;;;;;;;44.47;38.28;;;;;;;30.05;22.97;100689.50;4876409;28;101776;-80
2021/03/25 08:33:14;;;;;;;43.88;38.55;;;;;;;30.02;23.32;100681.72;4869374;28;97551;-82
2021/03/25 08:36:19;;;;;;;45.17;36.75;;;;;;;29.60;23.33;100681.81;4874255;28;97427;-80
2021/03/25 08:39:12;;;;;;;44.97;40.05;;;;;;;30.24;22.88;100688.31;4862843;28;97039;-79
2021/03/25 08:41:48;;;;;;;41.63;36.63;;;;;;;30.59;22.93;100675.38;4868909;28;98523;-80
2021/03/25 08:44:40;;;;;;;66.47;39.20;;;;;;;30.77;22.84;100675.97;4856004;28;101601;-79
2021/03/25 08:47:13;;;;;;;55.35;39.40;;;;;;;30.62;23.12;100669.59;4871105;28;96722;-80
2021/03/25 08:49:54;;;;;;;46.85;37.97;;;;;;;31.14;22.48;100669.06;4866496;28;97006;-80
2021/03/25 08:52:21;;;;;;;44.70;35.97;;;;;;;31.47;22.01;100664.31;4856311;28;101704;-84
2021/03/25 08:54:59;;;;;;;52.05;41.33;;;;;;;30.87;22.79;100668.53;4852041;28;101662;-80
2021/03/25 08:57:35;;;;;;;46.45;37.95;;;;;;;31.22;22.28;100666.31;4869629;28;96915;-81
2021/03/25 09:00:23;;;;;;;43.53;37.47;;;;;;;30.59;23.09;100664.53;4869882;28;97045;-83
2021/03/25 09:03:34;;;;;;;50.90;37.78;;;;;;;30.36;23.30;100659.84;4853815;28;101188;-80
2021/03/25 09:06:24;;;;;;;51.25;38.00;;;;;;;28.88;24.44;100657.97;4841320;28;98140;-82
2021/03/25 09:08:56;;;;;;;49.95;37.95;;;;;;;28.34;24.87;100652.78;4826599;29;97292;-80
2021/03/25 09:11:22;;;;;;;46.42;37.63;;;;;;;28.15;25.41;100661.06;4867371;28;97332;-86
2021/03/25 09:13:50;;;;;;;49.03;39.05;;;;;;;27.25;26.34;100660.25;4868357;28;98403;-80
2021/03/25 09:16:49;;;;;;;43.28;38.65;;;;;;;27.07;26.79;100662.88;4831610;29;100966;-80
2021/03/25 09:19:25;;;;;;;44.78;37.38;;;;;;;26.78;26.63;100650.44;4825374;28;97985;-81
2021/03/25 09:21:55;;;;;;;42.00;35.85;;;;;;;26.76;26.75;100660.53;4851356;28;97246;-79
2021/03/25 09:24:21;;;;;;;51.97;38.95;;;;;;;25.84;27.46;100663.00;4852626;29;101470;-83
2021/03/25 09:27:02;;;;;;;48.05;37.88;;;;;;;25.84;27.77;100660.31;4878498;28;97805;-79
2021/03/25 09:29:31;;;;;;;44.95;36.90;;;;;;;25.20;28.56;100662.50;4864675;28;96887;-79
2021/03/25 09:31:57;;;;;;;44.90;37.95;;;;;;;24.20;29.85;100653.41;4848930;28;97234;-79
2021/03/25 09:34:22;;;;;;;44.35;36.25;;;;;;;24.36;29.69;100656.47;4884587;28;97470;-84
2021/03/25 09:36:52;;;;;;;48.20;38.40;;;;;;;24.31;29.48;100651.50;4872860;28;98207;-81
2021/03/25 09:39:23;;;;;;;48.65;36.95;;;;;;;24.00;30.08;100664.03;4853278;28;97073;-79
2021/03/25 09:41:50;;;;;;;43.13;37.08;;;;;;;24.08;29.71;100652.63;4856320;28;98077;-79
2021/03/25 09:44:29;;;;;;;45.72;37.63;;;;;;;23.64;29.68;100650.00;4861807;28;101235;-79
2021/03/25 09:46:55;;;;;;;46.30;37.63;;;;;;;23.58;30.07;100650.53;4854524;28;101168;-79
2021/03/25 09:50:13;;;;;;;45.67;36.78;;;;;;;23.53;29.69;100650.06;4859138;28;96805;-85
2021/03/25 09:52:41;;;;;;;47.53;37.08;;;;;;;23.36;29.86;100659.50;4871615;28;97063;-78
2021/03/25 09:55:06;;;;;;;40.88;34.58;;;;;;;23.14;31.01;100648.84;4843288;28;101421;-78
2021/03/25 09:57:33;;;;;;;49.05;37.05;;;;;;;23.03;30.88;100644.34;4871675;28;101534;-79
2021/03/25 09:59:59;;;;;;;53.35;38.17;;;;;;;22.90;30.87;100649.84;4900474;28;97356;-78
2021/03/25 10:02:51;;;;;;;46.15;37.33;;;;;;;22.72;30.75;100653.97;4890115;28;98022;-85
2021/03/25 10:05:20;;;;;;;49.40;36.53;;;;;;;22.86;30.97;100653.72;4870427;28;101531;-75
2021/03/25 10:08:12;;;;;;;51.25;39.00;;;;;;;22.48;31.44;100651.41;4865331;28;101613;-76
2021/03/25 10:10:49;;;;;;;46.33;37.55;;;;;;;22.33;31.84;100656.16;4842920;28;97290;-78
2021/03/25 10:13:43;;;;;;;48.45;38.58;;;;;;;21.88;32.12;100656.88;4875766;28;97145;-76
2021/03/25 10:16:36;;;;;;;51.10;40.20;;;;;;;21.27;33.49;100657.91;4839427;28;101643;-76
2021/03/25 10:19:10;;;;;;;52.42;40.15;;;;;;;20.67;34.36;100657.72;4873873;28;97809;-76
2021/03/25 10:21:44;;;;;;;50.28;38.78;;;;;;;21.18;33.34;100654.09;4875470;28;98220;-76
2021/03/25 10:24:20;;;;;;;60.60;42.50;;;;;;;20.90;34.07;100652.56;4869933;28;97051;-79
2021/03/25 10:26:46;;;;;;;50.47;40.30;;;;;;;20.74;33.91;100648.34;4862595;28;101869;-75
2021/03/25 10:29:20;;;;;;;60.83;41.85;;;;;;;20.98;33.93;100650.22;4863268;28;97602;-77
2021/03/25 10:31:55;;;;;;;52.28;41.85;;;;;;;20.63;34.28;100639.41;4881132;28;96808;-74
2021/03/25 10:34:23;;;;;;;58.78;43.35;;;;;;;20.35;34.74;100647.47;4881170;28;96843;-76
2021/03/25 10:36:59;;;;;;;52.33;39.70;;;;;;;20.36;34.81;100653.66;4864140;28;102105;-76
2021/03/25 10:39:32;;;;;;;53.08;41.03;;;;;;;20.50;35.06;100645.56;4861148;28;101278;-84
2021/03/25 10:42:11;;;;;;;60.10;43.75;;;;;;;20.10;34.78;100643.00;4852707;28;97026;-80
2021/03/25 10:44:37;;;;;;;53.55;42.13;;;;;;;20.18;34.85;100641.63;4843175;28;97039;-78
2021/03/25 10:47:11;;;;;;;54.30;41.75;;;;;;;19.79;35.59;100641.56;4851707;28;101331;-77
2021/03/25 10:49:46;;;;;;;53.42;43.17;;;;;;;19.81;35.63;100630.81;4860783;28;100096;-78
2021/03/25 10:52:38;;;;;;;60.65;44.08;;;;;;;19.53;36.47;100631.78;4865013;28;97505;-78
2021/03/25 10:55:15;;;;;;;54.55;42.30;;;;;;;19.65;36.39;100633.66;4860045;28;97034;-78
2021/03/25 10:57:49;;;;;;;55.33;45.42;;;;;;;19.35;36.48;100628.53;4880165;28;101559;-78
2021/03/25 11:00:30;;;;;;;57.38;43.72;;;;;;;19.41;36.02;100634.31;4837478;28;101612;-80
2021/03/25 11:02:58;;;;;;;56.38;44.85;;;;;;;19.13;36.54;100629.91;4843032;28;97752;-78
2021/03/25 11:05:26;;;;;;;54.13;42.33;;;;;;;19.07;37.07;100629.47;4871681;28;97198;-79
2021/03/25 11:07:54;;;;;;;57.33;43.80;;;;;;;19.09;36.96;100630.25;4856813;28;101302;-78
2021/03/25 11:10:30;;;;;;;56.17;45.72;;;;;;;18.91;37.91;100625.16;4861634;28;101391;-78
2021/03/25 11:13:06;;;;;;;63.05;44.50;;;;;;;18.87;37.57;100628.09;4880138;28;97058;-79
2021/03/25 11:15:40;;;;;;;55.00;44.40;;;;;;;18.77;38.19;100619.84;4847764;28;96939;-78
2021/03/25 11:18:18;;;;;;;61.08;46.80;;;;;;;18.81;38.38;100625.81;4881495;28;98877;-79
2021/03/25 11:20:44;;;;;;;54.78;42.97;;;;;;;18.63;38.10;100607.38;4867447;28;97913;-80
2021/03/25 11:23:13;;;;;;;57.45;43.78;;;;;;;18.44;37.94;100621.00;4876658;28;97165;-82
2021/03/25 11:25:39;;;;;;;51.35;41.88;;;;;;;18.09;37.90;100621.34;4875522;28;96986;-82
2021/03/25 11:28:07;;;;;;;47.28;39.13;;;;;;;17.94;38.61;100618.75;4875551;28;101922;-80
2021/03/25 11:30:42;;;;;;;55.90;38.20;;;;;;;18.07;38.75;100611.75;4875642;28;101488;-82
2021/03/25 11:33:31;;;;;;;51.17;37.47;;;;;;;18.26;37.88;100614.97;4876809;28;96749;-81
2021/03/25 11:35:58;;;;;;;56.22;41.15;;;;;;;18.13;39.14;100611.38;4862810;28;96867;-82
2021/03/25 11:38:35;;;;;;;59.55;44.78;;;;;;;17.94;38.47;100610.78;4854364;28;100702;-84
2021/03/25 11:41:21;;;;;;;52.20;39.85;;;;;;;17.90;38.88;100612.78;4831989;28;101099;-82
2021/03/25 11:43:54;;;;;;;61.20;41.65;;;;;;;17.84;39.66;100605.19;4859443;28;97044;-81
2021/03/25 11:46:45;;;;;;;54.50;41.65;;;;;;;17.64;40.06;100614.28;4843629;28;98154;-82
2021/03/25 11:49:15;;;;;;;56.63;41.97;;;;;;;17.60;40.08;100613.63;4842314;28;101352;-82
2021/03/25 11:52:00;;;;;;;53.75;42.13;;;;;;;17.67;39.68;100611.44;4875184;28;101373;-82
2021/03/25 11:54:33;;;;;;;59.75;42.47;;;;;;;17.67;40.03;100611.44;4885075;28;96643;-83